Time;durP1;ratioP1;P1;durP2;ratioP2;P2;SDS_P1;SDS_P2;PMS_P1;PMS_P2;Temp;Humidity;BMP_temperature;BMP_pressure;BME280_temperature;BME280_humidity;BME280_pressure;Samples;Min_cycle;Max_cycle;Signal;HPM_P1;HPM_P2
2023/08/11 00:02:05;;;;;;;3.47;2.95;;;11.10;99.90;;;;;;5055733;28;20025;-64
2023/08/11 00:04:31;;;;;;;2.58;2.20;;;11.10;99.90;;;;;;5056987;28;20037;-64
2023/08/11 00:06:57;;;;;;;3.40;2.20;;;11.10;99.90;;;;;;5056876;28;20025;-64
2023/08/11 00:09:23;;;;;;;6.20;2.25;;;11.00;99.90;;;;;;5056766;28;20024;-64
2023/08/11 00:11:50;;;;;;;3.83;2.50;;;11.00;99.90;;;;;;5056889;28;20047;-63
2023/08/11 00:14:16;;;;;;;5.25;2.55;;;11.00;99.90;;;;;;5056495;28;20032;-63
2023/08/11 00:16:41;;;;;;;2.85;2.13;;;11.00;99.90;;;;;;5056739;28;20351;-64
2023/08/11 00:19:07;;;;;;;3.92;2.30;;;10.90;99.90;;;;;;5056741;28;20348;-63
2023/08/11 00:21:33;;;;;;;2.92;1.92;;;10.90;99.90;;;;;;5056472;28;20078;-64
2023/08/11 00:23:58;;;;;;;2.42;2.22;;;10.90;99.90;;;;;;5056439;28;20459;-63
2023/08/11 00:26:24;;;;;;;3.38;1.90;;;10.80;99.90;;;;;;5056616;28;20029;-63
2023/08/11 00:28:50;;;;;;;2.75;2.42;;;10.80;99.90;;;;;;5056823;28;20052;-64
2023/08/11 00:31:17;;;;;;;3.45;2.33;;;10.80;99.90;;;;;;5056740;28;20459;-64
2023/08/11 00:33:46;;;;;;;5.38;2.25;;;10.80;99.90;;;;;;5056678;28;20029;-63
2023/08/11 00:36:13;;;;;;;5.47;2.40;;;10.80;99.90;;;;;;5056389;28;20470;-63
2023/08/11 00:38:39;;;;;;;2.47;2.28;;;10.70;99.90;;;;;;5056422;28;20033;-63
2023/08/11 00:41:06;;;;;;;3.17;2.28;;;10.70;99.90;;;;;;5056364;28;20032;-64
2023/08/11 00:43:32;;;;;;;5.95;2.75;;;10.70;99.90;;;;;;5056204;28;20104;-64
2023/08/11 00:46:06;;;;;;;4.95;2.42;;;10.70;99.90;;;;;;5056519;28;20147;-63
2023/08/11 00:48:32;;;;;;;3.58;2.20;;;10.70;99.90;;;;;;5055932;28;20078;-64
2023/08/11 00:50:58;;;;;;;2.58;2.38;;;10.70;99.90;;;;;;5055644;28;20029;-63
2023/08/11 00:53:24;;;;;;;3.58;2.33;;;10.60;99.90;;;;;;5054831;28;20425;-63
2023/08/11 00:55:51;;;;;;;2.58;2.30;;;10.60;99.90;;;;;;5055819;28;20055;-63
2023/08/11 00:58:17;;;;;;;3.00;2.33;;;10.60;99.90;;;;;;5055071;28;20035;-64
2023/08/11 01:00:44;;;;;;;3.88;2.70;;;10.50;99.90;;;;;;5055216;28;20025;-65
2023/08/11 01:03:09;;;;;;;2.45;2.22;;;10.50;99.90;;;;;;5055137;28;20061;-64
2023/08/11 01:05:43;;;;;;;2.60;2.35;;;10.50;99.90;;;;;;5056388;28;20072;-63
2023/08/11 01:08:17;;;;;;;3.53;2.42;;;10.50;99.90;;;;;;5056412;28;20071;-63
2023/08/11 01:10:56;;;;;;;3.95;2.38;;;10.50;99.90;;;;;;5055079;28;20033;-64
2023/08/11 01:13:23;;;;;;;2.53;2.30;;;10.40;99.90;;;;;;5056304;28;20033;-64
2023/08/11 01:15:58;;;;;;;8.60;2.60;;;10.40;99.90;;;;;;5055439;28;20057;-64
2023/08/11 01:18:24;;;;;;;5.40;3.70;;;10.40;99.90;;;;;;5054600;28;20025;-63
2023/08/11 01:20:58;;;;;;;3.72;2.67;;;10.40;99.90;;;;;;5054621;28;20351;-63
2023/08/11 01:23:24;;;;;;;2.63;2.13;;;10.40;99.90;;;;;;5055451;28;20459;-63
2023/08/11 01:25:51;;;;;;;5.68;2.88;;;10.40;99.90;;;;;;5055489;28;20033;-63
2023/08/11 01:28:17;;;;;;;4.72;2.50;;;10.40;99.90;;;;;;5055516;28;20044;-63
2023/08/11 01:30:43;;;;;;;2.35;2.15;;;10.30;99.90;;;;;;5055675;28;20075;-63
2023/08/11 01:33:09;;;;;;;2.75;2.55;;;10.30;99.90;;;;;;5055351;28;20544;-63
2023/08/11 01:35:35;;;;;;;2.75;2.40;;;10.30;99.90;;;;;;5055584;28;20029;-64
2023/08/11 01:38:00;;;;;;;2.65;2.15;;;10.30;99.90;;;;;;5055026;28;20040;-64
2023/08/11 01:40:26;;;;;;;2.28;2.08;;;10.30;99.90;;;;;;5055493;28;20029;-63
2023/08/11 01:42:54;;;;;;;2.38;2.17;;;10.30;99.90;;;;;;5054448;28;20558;-63
2023/08/11 01:45:21;;;;;;;2.95;2.40;;;10.30;99.90;;;;;;5054043;28;20390;-63
2023/08/11 01:47:47;;;;;;;2.70;2.30;;;10.20;99.90;;;;;;5055148;28;20032;-63
2023/08/11 01:50:14;;;;;;;4.15;2.35;;;10.20;99.90;;;;;;5055215;28;20376;-63
2023/08/11 01:52:43;;;;;;;2.22;2.13;;;10.20;99.90;;;;;;5054987;28;20044;-63
2023/08/11 01:55:10;;;;;;;2.78;2.55;;;10.20;99.90;;;;;;5053689;28;20082;-63
2023/08/11 01:57:40;;;;;;;5.05;2.65;;;10.20;99.90;;;;;;5054665;28;20474;-63
2023/08/11 02:00:10;;;;;;;2.45;2.25;;;10.10;99.90;;;;;;5055011;28;20404;-63
2023/08/11 02:02:37;;;;;;;6.53;2.92;;;10.10;99.90;;;;;;5054132;28;20021;-63
2023/08/11 02:05:06;;;;;;;3.67;2.50;;;10.10;99.90;;;;;;5053359;28;20032;-63
2023/08/11 02:07:32;;;;;;;5.30;2.38;;;10.10;99.90;;;;;;5053182;28;20379;-63
2023/08/11 02:09:57;;;;;;;4.30;2.30;;;10.10;99.90;;;;;;5053360;28;20025;-64
2023/08/11 02:12:23;;;;;;;2.85;2.58;;;10.10;99.90;;;;;;5054602;28;20508;-63
2023/08/11 02:14:48;;;;;;;2.72;2.35;;;10.10;99.90;;;;;;5053398;28;20033;-63
2023/08/11 02:17:14;;;;;;;3.00;2.80;;;10.10;99.90;;;;;;5053231;28;20055;-63
2023/08/11 02:19:40;;;;;;;3.22;2.70;;;10.00;99.90;;;;;;5054179;28;20031;-63
2023/08/11 02:22:05;;;;;;;5.43;2.45;;;10.00;99.90;;;;;;5054407;28;20423;-64
2023/08/11 02:24:31;;;;;;;3.25;2.45;;;10.00;99.90;;;;;;5054466;28;20102;-63
2023/08/11 02:26:56;;;;;;;2.90;2.67;;;10.00;99.90;;;;;;5054576;28;20371;-63
2023/08/11 02:29:22;;;;;;;5.22;2.30;;;10.00;99.90;;;;;;5054816;28;20374;-64
2023/08/11 02:31:48;;;;;;;3.78;2.40;;;10.00;99.90;;;;;;5054352;28;20375;-63
2023/08/11 02:34:14;;;;;;;2.75;2.55;;;10.00;99.90;;;;;;5054167;28;20078;-63
2023/08/11 02:36:40;;;;;;;4.25;2.22;;;9.90;99.90;;;;;;5053884;28;20025;-64
2023/08/11 02:39:06;;;;;;;3.05;2.78;;;9.90;99.90;;;;;;5053788;28;20025;-64
2023/08/11 02:41:31;;;;;;;4.53;2.45;;;9.90;99.90;;;;;;5052785;28;20029;-63
2023/08/11 02:43:58;;;;;;;2.67;2.47;;;9.90;99.90;;;;;;5052771;28;20033;-63
2023/08/11 02:46:23;;;;;;;3.47;2.70;;;9.90;99.90;;;;;;5054023;28;20033;-63
2023/08/11 02:48:49;;;;;;;3.88;2.80;;;9.90;99.90;;;;;;5054127;28;20112;-64
2023/08/11 02:51:14;;;;;;;6.50;2.70;;;9.90;99.90;;;;;;5054037;28;20031;-63
2023/08/11 02:53:40;;;;;;;4.00;2.63;;;9.80;99.90;;;;;;5052728;28;20032;-63
2023/08/11 02:56:09;;;;;;;2.78;2.55;;;9.80;99.90;;;;;;5053908;28;20025;-63
2023/08/11 02:58:35;;;;;;;3.50;3.20;;;9.80;99.90;;;;;;5053639;28;20462;-63
2023/08/11 03:01:01;;;;;;;5.05;2.47;;;9.80;99.90;;;;;;5052658;28;20025;-64
2023/08/11 03:03:26;;;;;;;6.07;2.60;;;9.80;99.90;;;;;;5052715;28;20070;-63
2023/08/11 03:05:52;;;;;;;3.50;3.20;;;9.80;99.90;;;;;;5053722;28;20033;-64
2023/08/11 03:08:18;;;;;;;5.30;2.75;;;9.80;99.90;;;;;;5053707;28;20526;-64
2023/08/11 03:10:43;;;;;;;6.72;3.00;;;9.80;99.90;;;;;;5053512;28;20085;-63
2023/08/11 03:13:09;;;;;;;5.38;2.38;;;9.80;99.90;;;;;;5053740;28;20066;-64
2023/08/11 03:15:35;;;;;;;4.35;2.60;;;9.70;99.90;;;;;;5053628;28;20057;-63
2023/08/11 03:18:00;;;;;;;5.13;2.47;;;9.70;99.90;;;;;;5052307;28;20556;-63
2023/08/11 03:20:26;;;;;;;5.60;2.80;;;9.70;99.90;;;;;;5053748;28;20025;-63
2023/08/11 03:22:51;;;;;;;4.10;2.63;;;9.70;99.90;;;;;;5053968;28;20037;-63
2023/08/11 03:25:17;;;;;;;3.50;2.88;;;9.70;99.90;;;;;;5053119;28;20071;-64
2023/08/11 03:27:43;;;;;;;3.53;3.22;;;9.60;99.90;;;;;;5053282;28;20493;-64
2023/08/11 03:30:12;;;;;;;4.95;2.85;;;9.60;99.90;;;;;;5053531;28;20024;-63
2023/08/11 03:32:38;;;;;;;3.17;2.50;;;9.60;99.90;;;;;;5053239;28;20386;-63
2023/08/11 03:35:07;;;;;;;3.30;2.45;;;9.60;99.90;;;;;;5053313;28;20530;-63
2023/08/11 03:37:34;;;;;;;4.72;2.47;;;9.60;99.90;;;;;;5053219;28;20025;-63
2023/08/11 03:40:00;;;;;;;6.25;2.70;;;9.60;99.90;;;;;;5053684;28;20052;-64
2023/08/11 03:42:25;;;;;;;2.88;2.53;;;9.60;99.90;;;;;;5053138;28;20038;-64
2023/08/11 03:44:51;;;;;;;7.30;2.83;;;9.60;99.90;;;;;;5053297;28;20483;-64
2023/08/11 03:47:20;;;;;;;5.47;2.60;;;9.60;99.90;;;;;;5053383;28;20507;-64
2023/08/11 03:49:46;;;;;;;;;;;9.60;99.90;;;;;;5053816;28;20064;-63
2023/08/11 03:52:14;;;;;;;4.90;2.95;;;9.50;99.90;;;;;;5053067;28;20397;-64
2023/08/11 03:54:40;;;;;;;4.43;2.75;;;9.50;99.90;;;;;;5053548;28;20107;-64
2023/08/11 03:57:06;;;;;;;3.83;2.80;;;9.50;99.90;;;;;;5052408;28;20064;-64
2023/08/11 03:59:33;;;;;;;4.20;2.97;;;9.60;99.90;;;;;;5053555;28;20021;-63
2023/08/11 04:01:58;;;;;;;3.17;2.70;;;9.60;99.90;;;;;;5052497;28;20441;-63
2023/08/11 04:04:24;;;;;;;6.35;3.25;;;9.60;99.90;;;;;;5051874;28;20074;-63
2023/08/11 04:06:51;;;;;;;3.33;3.05;;;9.60;99.90;;;;;;5053190;28;20021;-63
2023/08/11 04:09:18;;;;;;;3.45;2.90;;;9.60;99.90;;;;;;5053327;28;20025;-63
2023/08/11 04:11:44;;;;;;;3.28;3.03;;;9.60;99.90;;;;;;5052806;28;20033;-64
2023/08/11 04:14:09;;;;;;;5.20;2.60;;;9.70;99.90;;;;;;5053073;28;20414;-63
2023/08/11 04:16:35;;;;;;;4.90;2.97;;;9.70;99.90;;;;;;5053062;28;20048;-63
2023/08/11 04:19:00;;;;;;;5.22;2.97;;;9.70;99.90;;;;;;5053153;28;20539;-64
2023/08/11 04:21:27;;;;;;;3.67;3.33;;;9.80;99.90;;;;;;5053387;28;20470;-64
2023/08/11 04:23:53;;;;;;;2.80;2.58;;;9.80;99.90;;;;;;5053871;28;20045;-64
2023/08/11 04:26:19;;;;;;;5.15;3.00;;;9.90;99.90;;;;;;5058560;28;20035;-64
2023/08/11 04:28:46;;;;;;;6.03;3.05;;;9.90;99.90;;;;;;5057328;28;20113;-65
2023/08/11 04:31:13;;;;;;;3.92;2.85;;;10.00;99.90;;;;;;5059177;28;20059;-64
2023/08/11 04:33:39;;;;;;;3.20;2.90;;;10.00;99.90;;;;;;5056946;28;20033;-64
2023/08/11 04:36:04;;;;;;;5.53;2.70;;;10.00;99.90;;;;;;5056654;28;20055;-63
2023/08/11 04:38:30;;;;;;;5.60;2.97;;;10.00;99.90;;;;;;5056889;28;20025;-64
2023/08/11 04:40:57;;;;;;;3.42;2.58;;;10.10;99.90;;;;;;5056373;28;20489;-64
2023/08/11 04:43:23;;;;;;;4.45;2.50;;;10.20;99.90;;;;;;5056683;28;20100;-64
2023/08/11 04:45:49;;;;;;;4.20;2.60;;;10.20;99.90;;;;;;5055897;28;20032;-65
2023/08/11 04:48:15;;;;;;;12.00;3.78;;;10.30;99.90;;;;;;5056182;28;20522;-64
2023/08/11 04:50:41;;;;;;;4.03;3.00;;;10.30;99.90;;;;;;5054885;28;20021;-64
2023/08/11 04:53:06;;;;;;;5.20;3.47;;;10.40;99.90;;;;;;5056695;28;20032;-65
2023/08/11 04:55:32;;;;;;;6.50;3.78;;;10.40;99.90;;;;;;5055903;28;20083;-64
2023/08/11 04:57:59;;;;;;;5.82;3.95;;;10.50;99.90;;;;;;5054815;28;20029;-64
2023/08/11 05:00:25;;;;;;;5.43;3.40;;;10.60;99.90;;;;;;5055987;28;20025;-64
2023/08/11 05:02:53;;;;;;;7.97;3.70;;;10.60;99.90;;;;;;5056048;28;20025;-57
2023/08/11 05:05:19;;;;;;;6.97;3.40;;;10.80;99.90;;;;;;5055486;28;20458;-57
2023/08/11 05:07:45;;;;;;;4.50;3.30;;;10.90;99.90;;;;;;5055975;28;20025;-57
2023/08/11 05:10:11;;;;;;;3.83;2.95;;;11.10;99.90;;;;;;5054887;28;20040;-57
2023/08/11 05:12:38;;;;;;;3.78;2.90;;;11.20;99.90;;;;;;5055706;28;20025;-57
2023/08/11 05:15:04;;;;;;;5.95;2.75;;;11.30;99.90;;;;;;5055664;28;20028;-58
2023/08/11 05:17:31;;;;;;;9.57;3.22;;;11.50;99.90;;;;;;5055811;28;20042;-57
2023/08/11 05:19:57;;;;;;;5.50;2.63;;;11.60;99.90;;;;;;5055808;28;20072;-64
2023/08/11 05:22:23;;;;;;;4.47;2.42;;;11.70;99.90;;;;;;5054336;28;20052;-64
2023/08/11 05:24:48;;;;;;;9.35;2.63;;;11.70;99.90;;;;;;5053875;28;20486;-64
2023/08/11 05:27:15;;;;;;;3.13;2.58;;;11.80;99.90;;;;;;5055632;28;20044;-64
2023/08/11 05:29:45;;;;;;;3.50;2.10;;;11.90;99.90;;;;;;5055368;28;20434;-64
2023/08/11 05:32:11;;;;;;;3.70;2.45;;;11.90;99.90;;;;;;5055326;28;20021;-64
2023/08/11 05:34:37;;;;;;;4.38;2.15;;;12.00;99.90;;;;;;5053769;28;20029;-64
2023/08/11 05:37:04;;;;;;;2.40;2.20;;;12.10;99.90;;;;;;5053279;28;20035;-64
2023/08/11 05:39:30;;;;;;;3.45;2.33;;;12.20;99.90;;;;;;5055071;28;20471;-64
2023/08/11 05:41:56;;;;;;;4.75;2.15;;;12.30;99.90;;;;;;5055145;28;20082;-64
2023/08/11 05:44:22;;;;;;;3.55;1.85;;;12.40;99.90;;;;;;5053728;28;20454;-64
2023/08/11 05:46:48;;;;;;;3.53;2.42;;;12.50;99.90;;;;;;5053743;28;20112;-64
2023/08/11 05:49:14;;;;;;;4.00;2.35;;;12.60;99.90;;;;;;5054694;28;20109;-64
2023/08/11 05:51:39;;;;;;;2.42;2.00;;;12.80;99.90;;;;;;5054563;28;20094;-64
2023/08/11 05:54:05;;;;;;;5.05;2.50;;;12.90;99.90;;;;;;5054881;28;20482;-64
2023/08/11 05:56:31;;;;;;;3.95;1.90;;;13.00;99.90;;;;;;5053233;28;20029;-64
2023/08/11 05:58:57;;;;;;;4.05;2.20;;;13.20;99.90;;;;;;5054739;28;20056;-64
2023/08/11 06:01:22;;;;;;;3.17;2.17;;;13.30;99.90;;;;;;5054935;28;20451;-57
2023/08/11 06:03:48;;;;;;;3.33;2.10;;;13.70;99.90;;;;;;5054520;28;20029;-57
2023/08/11 06:06:14;;;;;;;2.88;1.92;;;14.00;99.90;;;;;;5054368;28;20473;-58
2023/08/11 06:08:39;;;;;;;2.95;2.05;;;14.50;99.90;;;;;;5054152;28;20104;-58
2023/08/11 06:11:05;;;;;;;8.15;3.42;;;14.90;99.90;;;;;;5054010;28;20052;-63
2023/08/11 06:13:31;;;;;;;4.93;1.80;;;15.40;99.90;;;;;;5053084;28;20394;-63
2023/08/11 06:15:56;;;;;;;5.13;2.10;;;15.70;99.90;;;;;;5036307;28;20029;-63
2023/08/11 06:18:22;;;;;;;4.93;1.52;;;16.10;99.90;;;;;;5053810;28;20047;-63
2023/08/11 06:20:48;;;;;;;4.82;1.70;;;16.60;99.90;;;;;;5053957;28;20095;-64
2023/08/11 06:23:14;;;;;;;6.18;1.77;;;16.90;99.90;;;;;;5053741;28;20112;-63
2023/08/11 06:25:39;;;;;;;6.93;1.75;;;17.30;99.90;;;;;;5054309;28;20037;-63
2023/08/11 06:28:07;;;;;;;4.15;1.98;;;17.70;99.90;;;;;;5053835;28;20040;-57
2023/08/11 06:30:33;;;;;;;3.47;1.90;;;18.10;99.90;;;;;;5053108;28;20037;-57
2023/08/11 06:32:59;;;;;;;2.70;1.58;;;18.50;99.90;;;;;;5054138;28;20067;-57
2023/08/11 06:35:25;;;;;;;2.20;1.30;;;18.90;99.90;;;;;;5054267;28;20362;-57
2023/08/11 06:37:51;;;;;;;3.55;1.40;;;19.30;99.90;;;;;;5053912;28;20060;-66
2023/08/11 06:40:17;;;;;;;3.10;1.20;;;19.60;99.90;;;;;;5053672;28;20057;-67
2023/08/11 06:42:43;;;;;;;4.05;1.50;;;19.90;99.90;;;;;;5054351;28;20017;-67
2023/08/11 06:45:09;;;;;;;3.38;1.38;;;20.10;99.90;;;;;;5052735;28;20040;-67
2023/08/11 06:47:35;;;;;;;1.75;1.30;;;20.50;99.90;;;;;;5053287;28;20052;-69
2023/08/11 06:50:02;;;;;;;1.38;1.20;;;20.90;99.90;;;;;;5053437;28;20068;-69
2023/08/11 06:52:28;;;;;;;1.45;1.35;;;21.40;99.90;;;;;;5052412;28;20034;-70
2023/08/11 06:54:54;;;;;;;1.10;1.10;;;21.90;99.90;;;;;;5052351;28;20391;-67
2023/08/11 06:57:20;;;;;;;1.25;1.00;;;22.30;99.90;;;;;;5052597;28;20071;-68
2023/08/11 06:59:47;;;;;;;1.13;0.98;;;22.60;98.90;;;;;;5053960;28;20021;-67
2023/08/11 07:02:12;;;;;;;2.00;1.20;;;22.90;98.60;;;;;;5053508;28;20053;-67
2023/08/11 07:04:39;;;;;;;2.38;1.80;;;23.20;97.10;;;;;;5053383;28;20064;-67
2023/08/11 07:07:05;;;;;;;3.97;1.50;;;23.50;95.80;;;;;;5052206;28;20119;-69
2023/08/11 07:09:32;;;;;;;3.60;1.00;;;23.80;95.20;;;;;;5053453;28;20032;-69
2023/08/11 07:11:58;;;;;;;4.88;0.90;;;24.60;94.20;;;;;;5053466;28;20021;-63
2023/08/11 07:14:24;;;;;;;1.55;1.10;;;24.30;93.80;;;;;;5053397;28;20059;-63
2023/08/11 07:16:49;;;;;;;1.02;0.95;;;24.60;93.00;;;;;;5052444;28;20025;-62
2023/08/11 07:19:15;;;;;;;0.98;0.95;;;24.80;91.90;;;;;;5053175;28;20025;-63
2023/08/11 07:21:41;;;;;;;1.70;0.80;;;25.20;91.00;;;;;;5053384;28;20483;-63
2023/08/11 07:24:06;;;;;;;2.13;1.10;;;25.20;88.50;;;;;;5053174;28;20077;-63
2023/08/11 07:26:32;;;;;;;2.63;1.65;;;24.90;88.70;;;;;;5052111;28;20025;-63
2023/08/11 07:28:58;;;;;;;1.38;0.88;;;25.10;89.00;;;;;;5053048;28;20024;-63
2023/08/11 07:31:24;;;;;;;2.70;1.10;;;25.60;86.60;;;;;;5052927;28;20021;-63
2023/08/11 07:33:50;;;;;;;1.27;0.90;;;25.50;83.80;;;;;;5053244;28;20036;-61
2023/08/11 07:36:15;;;;;;;1.35;1.00;;;25.20;84.70;;;;;;5053007;28;20436;-63
2023/08/11 07:38:42;;;;;;;1.20;0.98;;;25.50;83.40;;;;;;5053100;28;20045;-64
2023/08/11 07:41:07;;;;;;;2.20;1.02;;;25.50;81.40;;;;;;5053163;28;20037;-63
2023/08/11 07:43:33;;;;;;;1.10;0.98;;;25.70;80.80;;;;;;5053423;28;20111;-64
2023/08/11 07:45:59;;;;;;;1.10;1.00;;;25.70;80.40;;;;;;5053133;28;20095;-57
2023/08/11 07:48:24;;;;;;;1.17;1.13;;;25.80;79.70;;;;;;5053167;28;20090;-57
2023/08/11 07:50:50;;;;;;;1.35;1.13;;;26.20;79.10;;;;;;5053182;28;20102;-57
2023/08/11 07:53:16;;;;;;;2.67;0.95;;;26.40;77.00;;;;;;5053044;28;20405;-57
2023/08/11 07:55:41;;;;;;;1.10;1.00;;;26.80;76.60;;;;;;5053422;28;20040;-57
2023/08/11 07:58:07;;;;;;;1.15;0.80;;;27.30;74.10;;;;;;5053349;28;20150;-57
2023/08/11 08:00:33;;;;;;;4.57;0.90;;;27.60;71.70;;;;;;5056016;28;20431;-57
2023/08/11 08:02:58;;;;;;;0.85;0.80;;;27.70;70.30;;;;;;5056897;28;20053;-57
2023/08/11 08:05:24;;;;;;;2.20;1.02;;;27.60;69.40;;;;;;5056987;28;20386;-57
2023/08/11 08:07:50;;;;;;;0.95;0.95;;;27.50;69.80;;;;;;5055510;28;20033;-57
2023/08/11 08:10:15;;;;;;;1.00;0.88;;;27.40;68.10;;;;;;5055444;28;20025;-57
2023/08/11 08:12:45;;;;;;;0.90;0.90;;;27.50;67.80;;;;;;5056724;28;20466;-59
2023/08/11 08:15:11;;;;;;;0.82;0.68;;;27.30;66.70;;;;;;5057192;28;20036;-57
2023/08/11 08:17:38;;;;;;;3.20;1.00;;;26.80;66.60;;;;;;5056599;28;20021;-56
2023/08/11 08:20:05;;;;;;;1.33;0.95;;;26.90;67.70;;;;;;5056902;28;20029;-57
2023/08/11 08:22:32;;;;;;;3.55;1.15;;;27.50;66.70;;;;;;5056896;28;20533;-57
2023/08/11 08:24:58;;;;;;;1.88;1.00;;;27.80;65.20;;;;;;5054701;28;20052;-57
2023/08/11 08:27:24;;;;;;;1.65;1.00;;;28.10;64.80;;;;;;5056713;28;20021;-57
2023/08/11 08:29:53;;;;;;;0.90;0.90;;;28.70;63.40;;;;;;5055850;28;20029;-57
2023/08/11 08:32:22;;;;;;;1.00;0.90;;;29.00;62.50;;;;;;5055138;28;20025;-57
2023/08/11 08:34:49;;;;;;;2.22;0.80;;;29.60;60.60;;;;;;5056321;28;20364;-69
2023/08/11 08:37:20;;;;;;;1.33;0.80;;;29.60;59.50;;;;;;5055043;28;20056;-70
2023/08/11 08:39:49;;;;;;;4.63;1.05;;;29.40;60.00;;;;;;5056031;28;20035;-71
2023/08/11 08:42:15;;;;;;;1.52;0.98;;;29.70;59.20;;;;;;5056028;28;20061;-71
2023/08/11 08:44:42;;;;;;;3.33;0.80;;;30.00;58.10;;;;;;5055965;28;20470;-71
2023/08/11 08:47:11;;;;;;;1.75;1.20;;;30.00;56.90;;;;;;5055270;28;20025;-71
2023/08/11 08:49:38;;;;;;;4.20;1.60;;;30.30;56.50;;;;;;5055240;28;20097;-71
2023/08/11 08:52:06;;;;;;;2.17;1.00;;;30.70;56.10;;;;;;5055793;28;20071;-70
2023/08/11 08:54:33;;;;;;;0.88;0.88;;;30.50;56.10;;;;;;5054943;28;20104;-70
2023/08/11 08:57:00;;;;;;;1.05;0.80;;;30.60;54.90;;;;;;5054918;28;20116;-70
2023/08/11 08:59:26;;;;;;;2.78;0.88;;;30.80;54.20;;;;;;5055887;28;20370;-70
2023/08/11 09:01:53;;;;;;;0.90;0.90;;;30.90;54.50;;;;;;5055897;28;20032;-70
2023/08/11 09:04:21;;;;;;;0.98;0.98;;;30.80;53.40;;;;;;5055742;28;20036;-70
2023/08/11 09:06:47;;;;;;;3.13;1.02;;;30.70;53.80;;;;;;5056062;28;20028;-70
2023/08/11 09:09:13;;;;;;;1.13;0.70;;;30.80;52.30;;;;;;5054782;28;20029;-70
2023/08/11 09:11:39;;;;;;;0.90;0.90;;;30.90;52.80;;;;;;5053976;28;20386;-70
2023/08/11 09:14:07;;;;;;;1.77;0.88;;;31.00;51.20;;;;;;5055313;28;20029;-70
2023/08/11 09:16:39;;;;;;;1.10;0.93;;;30.80;51.00;;;;;;5054275;28;20035;-70
2023/08/11 09:19:10;;;;;;;0.90;0.90;;;31.00;52.50;;;;;;5054269;28;20033;-70
2023/08/11 09:21:36;;;;;;;2.05;0.88;;;31.30;51.90;;;;;;5054773;28;20094;-70
2023/08/11 09:24:02;;;;;;;0.80;0.80;;;31.70;50.00;;;;;;5055075;28;20063;-70
2023/08/11 09:26:28;;;;;;;1.38;0.70;;;31.20;48.70;;;;;;5054147;28;20386;-70
2023/08/11 09:28:54;;;;;;;1.45;1.10;;;31.10;50.50;;;;;;5055576;28;20052;-70
2023/08/11 09:31:24;;;;;;;0.70;0.70;;;31.50;49.30;;;;;;5053721;28;20025;-70
2023/08/11 09:33:51;;;;;;;3.38;0.77;;;31.40;46.70;;;;;;5055386;28;20032;-71
2023/08/11 09:36:17;;;;;;;0.50;0.50;;;31.30;48.70;;;;;;5055168;28;20021;-71
2023/08/11 09:38:47;;;;;;;0.75;0.60;;;31.10;48.40;;;;;;5054582;28;20474;-70
2023/08/11 09:41:14;;;;;;;1.65;0.77;;;31.50;48.20;;;;;;5054945;28;20063;-64
2023/08/11 09:43:47;;;;;;;0.43;0.43;;;32.30;47.00;;;;;;5054896;28;20017;-59
2023/08/11 09:46:12;;;;;;;1.00;0.95;;;32.40;47.50;;;;;;5055288;28;20028;-59
2023/08/11 09:48:38;;;;;;;0.63;0.63;;;32.30;46.30;;;;;;5053529;28;20036;-58
2023/08/11 09:51:10;;;;;;;1.05;0.70;;;32.40;46.70;;;;;;5054657;28;20032;-58
2023/08/11 09:53:40;;;;;;;0.73;0.70;;;32.50;45.40;;;;;;5054879;28;20035;-58
2023/08/11 09:56:06;;;;;;;1.33;0.80;;;32.40;44.60;;;;;;5054865;28;20033;-58
2023/08/11 09:58:38;;;;;;;0.60;0.60;;;32.50;44.10;;;;;;5054723;28;20044;-58
2023/08/11 10:01:07;;;;;;;1.85;0.80;;;32.70;42.50;;;;;;5053289;28;20029;-59
2023/08/11 10:03:44;;;;;;;0.88;0.70;;;32.90;43.00;;;;;;5054641;28;20040;-59
2023/08/11 10:06:17;;;;;;;4.80;0.80;;;32.90;43.10;;;;;;5054500;28;20028;-59
2023/08/11 10:08:45;;;;;;;2.00;0.65;;;32.90;42.80;;;;;;5054916;28;20033;-59
2023/08/11 10:11:12;;;;;;;1.80;1.23;;;33.20;40.40;;;;;;5054518;28;20055;-65
2023/08/11 10:13:39;;;;;;;0.75;0.73;;;33.20;42.40;;;;;;5054556;28;20025;-65
2023/08/11 10:16:06;;;;;;;5.47;0.68;;;33.40;40.00;;;;;;5054411;28;20389;-65
2023/08/11 10:18:33;;;;;;;0.80;0.75;;;33.50;39.00;;;;;;5054077;28;20466;-66
2023/08/11 10:20:59;;;;;;;0.60;0.60;;;33.50;38.60;;;;;;5054227;28;20051;-66
2023/08/11 10:23:27;;;;;;;1.33;0.70;;;34.10;39.40;;;;;;5053566;28;20100;-65
2023/08/11 10:25:53;;;;;;;2.50;0.90;;;34.20;38.70;;;;;;5054528;28;20060;-65
2023/08/11 10:28:19;;;;;;;0.70;0.70;;;34.40;39.60;;;;;;5054180;28;20397;-66
2023/08/11 10:30:55;;;;;;;0.70;0.70;;;34.20;37.40;;;;;;5052838;28;20032;-65
2023/08/11 10:33:21;;;;;;;0.75;0.73;;;33.40;38.40;;;;;;5052993;28;20025;-65
2023/08/11 10:35:51;;;;;;;1.05;0.80;;;33.70;38.40;;;;;;5054358;28;20067;-66
2023/08/11 10:38:32;;;;;;;2.75;0.80;;;33.80;38.30;;;;;;5054309;28;20032;-66
2023/08/11 10:41:07;;;;;;;0.75;0.75;;;34.00;38.10;;;;;;5054072;28;20463;-65
2023/08/11 10:43:35;;;;;;;0.68;0.68;;;34.50;38.70;;;;;;5054144;28;20103;-66
2023/08/11 10:46:17;;;;;;;0.90;0.90;;;34.70;37.20;;;;;;5052927;28;20043;-66
2023/08/11 10:48:43;;;;;;;3.00;0.82;;;34.80;37.20;;;;;;5053745;28;20111;-66
2023/08/11 10:51:31;;;;;;;4.03;1.08;;;34.80;37.30;;;;;;5053765;28;20100;-66
2023/08/11 10:54:01;;;;;;;0.63;0.60;;;35.00;38.00;;;;;;5052910;28;20107;-66
2023/08/11 10:56:47;;;;;;;1.15;0.80;;;35.10;37.10;;;;;;5052553;28;20483;-66
2023/08/11 10:59:25;;;;;;;2.22;0.70;;;35.00;36.40;;;;;;5053453;28;20033;-66
2023/08/11 11:01:55;;;;;;;0.68;0.68;;;35.20;36.40;;;;;;5053696;28;20017;-66
2023/08/11 11:04:23;;;;;;;0.75;0.75;;;35.10;36.20;;;;;;5052128;28;20029;-66
2023/08/11 11:06:51;;;;;;;0.63;0.63;;;35.10;35.80;;;;;;5053324;28;20052;-66
2023/08/11 11:09:17;;;;;;;0.80;0.75;;;34.40;36.00;;;;;;5053590;28;20087;-66
2023/08/11 11:11:44;;;;;;;2.45;0.90;;;33.30;36.00;;;;;;5052164;28;20029;-66
2023/08/11 11:14:10;;;;;;;1.27;0.82;;;32.80;35.40;;;;;;5053522;28;20036;-66
2023/08/11 11:16:36;;;;;;;0.73;0.73;;;32.60;36.80;;;;;;5053489;28;20027;-66
2023/08/11 11:19:04;;;;;;;0.80;0.80;;;32.70;36.20;;;;;;5053211;28;20057;-66
2023/08/11 11:21:30;;;;;;;1.23;0.70;;;32.80;37.30;;;;;;5053278;28;20029;-65
2023/08/11 11:23:56;;;;;;;1.05;0.82;;;33.10;37.50;;;;;;5053127;28;20088;-66
2023/08/11 11:26:28;;;;;;;0.60;0.57;;;33.00;36.40;;;;;;5053303;28;20132;-66
2023/08/11 11:28:55;;;;;;;0.70;0.70;;;33.10;36.40;;;;;;5053273;28;20481;-66
2023/08/11 11:31:22;;;;;;;0.97;0.97;;;33.30;37.40;;;;;;5053909;28;20057;-66
2023/08/11 11:33:48;;;;;;;3.00;0.60;;;33.60;36.00;;;;;;5054845;28;20263;-66
2023/08/11 11:36:17;;;;;;;1.13;0.93;;;34.00;36.50;;;;;;5057148;28;20025;-66
2023/08/11 11:38:43;;;;;;;2.10;0.88;;;34.50;35.20;;;;;;5057188;28;20029;-66
2023/08/11 11:41:10;;;;;;;1.85;0.77;;;34.80;35.00;;;;;;5057052;28;20078;-66
2023/08/11 11:43:36;;;;;;;2.05;0.80;;;34.80;35.70;;;;;;5056034;28;20463;-66
2023/08/11 11:46:02;;;;;;;1.30;0.80;;;34.70;36.50;;;;;;5057605;28;20174;-66
2023/08/11 11:48:28;;;;;;;0.68;0.65;;;34.50;36.30;;;;;;5057055;28;20025;-66
2023/08/11 11:50:54;;;;;;;0.70;0.70;;;34.90;34.50;;;;;;5055944;28;20029;-66
2023/08/11 11:53:23;;;;;;;0.82;0.82;;;34.90;35.90;;;;;;5056889;28;20484;-66
2023/08/11 11:55:51;;;;;;;0.75;0.75;;;35.30;35.40;;;;;;5055925;28;20183;-66
2023/08/11 11:58:17;;;;;;;1.40;0.70;;;35.80;35.40;;;;;;5057138;28;20029;-66
2023/08/11 12:00:46;;;;;;;0.73;0.73;;;35.40;34.30;;;;;;5056988;28;20028;-67
2023/08/11 12:03:12;;;;;;;3.58;0.70;;;35.10;35.30;;;;;;5057094;28;20484;-66
2023/08/11 12:05:38;;;;;;;1.15;0.75;;;34.70;35.00;;;;;;5056866;28;20120;-66
2023/08/11 12:08:22;;;;;;;1.42;0.80;;;34.20;36.00;;;;;;5055735;28;20394;-66
2023/08/11 12:10:48;;;;;;;1.90;0.70;;;34.90;34.90;;;;;;5057069;28;20406;-66
2023/08/11 12:13:14;;;;;;;0.80;0.60;;;35.00;34.20;;;;;;5056838;28;20021;-66
2023/08/11 12:15:40;;;;;;;2.03;0.73;;;34.70;35.10;;;;;;5055500;28;20501;-65
2023/08/11 12:18:06;;;;;;;0.57;0.57;;;34.20;34.80;;;;;;5056859;28;20138;-66
2023/08/11 12:20:35;;;;;;;1.27;0.80;;;34.00;34.60;;;;;;5056915;28;20033;-66
2023/08/11 12:23:00;;;;;;;1.67;0.88;;;34.30;34.80;;;;;;5056545;28;20079;-66
2023/08/11 12:25:26;;;;;;;2.53;0.82;;;35.00;35.90;;;;;;5054915;28;20041;-66
2023/08/11 12:27:53;;;;;;;0.70;0.70;;;35.00;35.30;;;;;;5056805;28;20104;-66
2023/08/11 12:30:19;;;;;;;1.45;0.80;;;35.30;35.20;;;;;;5055206;28;20029;-66
2023/08/11 12:32:45;;;;;;;0.70;0.70;;;35.00;34.20;;;;;;5056686;28;20033;-66
2023/08/11 12:35:11;;;;;;;0.80;0.80;;;35.30;34.70;;;;;;5055080;28;20028;-66
2023/08/11 12:37:37;;;;;;;0.80;0.63;;;34.90;33.80;;;;;;5056332;28;20025;-66
2023/08/11 12:40:03;;;;;;;0.63;0.63;;;34.20;35.00;;;;;;5055112;28;20055;-66
2023/08/11 12:42:29;;;;;;;1.00;0.60;;;33.90;34.60;;;;;;5056394;28;20027;-66
2023/08/11 12:44:55;;;;;;;0.80;0.60;;;34.30;35.20;;;;;;5054340;28;20033;-66
2023/08/11 12:47:21;;;;;;;0.60;0.60;;;34.10;35.30;;;;;;5055920;28;20025;-65